Time;durP1;ratioP1;P1;durP2;ratioP2;P2;SDS_P1;SDS_P2;PMS_P1;PMS_P2;Temp;Humidity;BMP_temperature;BMP_pressure;BME280_temperature;BME280_humidity;BME280_pressure;Samples;Min_cycle;Max_cycle;Signal;HPM_P1;HPM_P2
2021/12/26 00:00:03;;;;;;;;;;;;;;;20.28;55.55;98730.69;2080056;28;19917;-39
2021/12/26 00:01:06;;;;;;;;;;;;;;;20.28;55.49;98738.88;2084808;28;19923;-39
2021/12/26 00:02:07;;;;;;;;;;;;;;;20.27;55.53;98738.03;2092723;28;19998;-39
2021/12/26 00:03:07;;;;;;;;;;;;;;;20.28;55.40;98736.16;2095122;28;20396;-40
2021/12/26 00:04:13;;;;;;;;;;;;;;;20.26;55.46;98732.75;2092051;28;19916;-39
2021/12/26 00:05:14;;;;;;;;;;;;;;;20.26;55.50;98738.22;2093071;28;19924;-39
2021/12/26 00:06:32;;;;;;;;;;;;;;;20.25;55.35;98731.06;2094470;28;19913;-39
2021/12/26 00:07:32;;;;;;;;;;;;;;;20.24;55.37;98732.97;2079008;28;19916;-39
2021/12/26 00:08:36;;;;;;;;;;;;;;;20.23;55.52;98731.25;2083944;28;19952;-39
2021/12/26 00:09:36;;;;;;;;;;;;;;;20.23;55.44;98727.66;2095189;28;19916;-40
2021/12/26 00:10:36;;;;;;;;;;;;;;;20.22;55.51;98729.56;2089343;28;20526;-39
2021/12/26 00:11:37;;;;;;;;;;;;;;;20.23;55.51;98735.88;2093260;28;20301;-39
2021/12/26 00:12:37;;;;;;;;;;;;;;;20.22;55.52;98731.47;2094756;28;19916;-39
2021/12/26 00:13:38;;;;;;;;;;;;;;;20.21;55.35;98725.13;2091959;28;19916;-39
2021/12/26 00:14:40;;;;;;;;;;;;;;;20.21;55.39;98729.75;2093469;28;19916;-39
2021/12/26 00:15:40;;;;;;;;;;;;;;;20.22;55.52;98731.47;2090024;28;20022;-39
2021/12/26 00:16:42;;;;;;;;;;;;;;;20.21;55.58;98719.66;2094358;28;20172;-39
2021/12/26 00:17:42;;;;;;;;;;;;;;;20.21;55.34;98729.75;2092651;28;19912;-39
2021/12/26 00:18:45;;;;;;;;;;;;;;;20.20;55.42;98728.06;2094652;28;19997;-39
2021/12/26 00:19:45;;;;;;;;;;;;;;;20.20;55.37;98733.53;2093799;28;19979;-39
2021/12/26 00:20:47;;;;;;;;;;;;;;;20.20;55.44;98728.06;2093727;28;19908;-39
2021/12/26 00:21:48;;;;;;;;;;;;;;;20.18;55.47;98725.50;2091646;28;20726;-39
2021/12/26 00:22:48;;;;;;;;;;;;;;;20.17;55.43;98722.97;2085630;28;19998;-39
2021/12/26 00:23:49;;;;;;;;;;;;;;;20.17;55.41;98737.50;2083658;28;20278;-39
2021/12/26 00:24:49;;;;;;;;;;;;;;;20.18;55.43;98736.44;2093845;28;19969;-39
2021/12/26 00:25:50;;;;;;;;;;;;;;;20.18;55.47;98732.88;2085554;28;20026;-39
2021/12/26 00:26:50;;;;;;;;;;;;;;;20.17;55.35;98739.38;2083533;28;19997;-39
2021/12/26 00:27:51;;;;;;;;;;;;;;;20.16;55.46;98733.03;2094464;28;19916;-39
2021/12/26 00:28:51;;;;;;;;;;;;;;;20.15;55.57;98736.81;2087047;28;20265;-39
2021/12/26 00:29:52;;;;;;;;;;;;;;;20.15;55.26;98730.50;2088793;28;19912;-39
2021/12/26 00:30:52;;;;;;;;;;;;;;;20.14;55.32;98732.41;2086306;28;20314;-39
2021/12/26 00:31:53;;;;;;;;;;;;;;;20.15;55.26;98727.78;2089736;28;20223;-39
2021/12/26 00:32:53;;;;;;;;;;;;;;;20.13;55.50;98739.75;2093843;28;19920;-39
2021/12/26 00:33:53;;;;;;;;;;;;;;;20.13;55.30;98730.69;2085282;28;20412;-39
2021/12/26 00:34:54;;;;;;;;;;;;;;;20.13;55.39;98739.75;2076594;28;20464;-39
2021/12/26 00:35:54;;;;;;;;;;;;;;;20.13;55.45;98733.44;2091373;28;19939;-39
2021/12/26 00:36:55;;;;;;;;;;;;;;;20.11;55.39;98736.38;2092999;28;19923;-39
2021/12/26 00:37:55;;;;;;;;;;;;;;;20.12;55.30;98737.22;2095613;28;20630;-38
2021/12/26 00:38:55;;;;;;;;;;;;;;;20.11;55.30;98738.22;2082004;28;20367;-39
2021/12/26 00:39:56;;;;;;;;;;;;;;;20.11;55.30;98738.22;2085619;28;19917;-39
2021/12/26 00:40:57;;;;;;;;;;;;;;;20.09;55.24;98735.72;2085379;28;19916;-39
2021/12/26 00:41:58;;;;;;;;;;;;;;;20.09;55.39;98732.97;2086178;28;20186;-39
2021/12/26 00:42:58;;;;;;;;;;;;;;;20.10;55.45;98742.88;2086107;28;20362;-39
2021/12/26 00:43:59;;;;;;;;;;;;;;;20.09;55.29;98738.44;2087710;28;19916;-39
2021/12/26 00:44:59;;;;;;;;;;;;;;;20.08;55.26;98741.34;2088192;28;20213;-39
2021/12/26 00:46:00;;;;;;;;;;;;;;;20.08;55.41;98736.72;2087977;28;20233;-39
2021/12/26 00:47:00;;;;;;;;;;;;;;;20.07;55.32;98740.50;2088340;28;20566;-38
2021/12/26 00:48:01;;;;;;;;;;;;;;;20.08;55.35;98741.34;2086345;28;19913;-39
2021/12/26 00:49:03;;;;;;;;;;;;;;;20.07;55.34;98740.50;2092286;28;19916;-39
2021/12/26 00:50:04;;;;;;;;;;;;;;;20.07;55.23;98739.66;2093896;28;19919;-39
2021/12/26 00:51:04;;;;;;;;;;;;;;;20.06;55.39;98743.44;2093139;28;20403;-39
2021/12/26 00:52:06;;;;;;;;;;;;;;;20.06;55.32;98738.84;2092650;28;19969;-39
2021/12/26 00:53:06;;;;;;;;;;;;;;;20.05;55.33;98741.75;2093125;28;19924;-39
2021/12/26 00:54:06;;;;;;;;;;;;;;;20.05;55.27;98737.13;2091465;28;19947;-39
2021/12/26 00:55:09;;;;;;;;;;;;;;;20.04;55.40;98740.03;2091787;28;19920;-38
2021/12/26 00:56:09;;;;;;;;;;;;;;;20.05;55.40;98733.53;2087403;28;19913;-39
2021/12/26 00:57:10;;;;;;;;;;;;;;;20.03;55.39;98730.97;2091750;28;20495;-39
2021/12/26 00:58:10;;;;;;;;;;;;;;;20.03;55.24;98739.19;2094942;28;19916;-39
2021/12/26 00:59:10;;;;;;;;;;;;;;;20.03;55.26;98736.44;2092629;28;20351;-39
2021/12/26 01:00:15;;;;;;;;;;;;;;;20.03;55.41;98741.91;2092344;28;19916;-39
2021/12/26 01:01:15;;;;;;;;;;;;;;;20.02;55.33;98737.50;2093252;28;20368;-39
2021/12/26 01:02:16;;;;;;;;;;;;;;;20.02;55.25;98734.75;2089775;28;19909;-39
2021/12/26 01:03:17;;;;;;;;;;;;;;;20.01;55.35;98734.94;2092040;28;19986;-38
2021/12/26 01:04:17;;;;;;;;;;;;;;;20.01;55.20;98733.06;2089090;28;19908;-39
2021/12/26 01:05:19;;;;;;;;;;;;;;;20.01;55.18;98740.41;2093569;28;19966;-38
2021/12/26 01:06:19;;;;;;;;;;;;;;;20.00;55.30;98738.72;2094296;28;19927;-40
2021/12/26 01:08:05;;;;;;;;;;;;;;;20.00;55.38;98736.00;2089860;28;20725;-40
2021/12/26 01:08:42;;;;;;;;;;;;;;;19.99;55.30;98742.47;2075826;28;19939;-39
2021/12/26 01:09:46;;;;;;;;;;;;;;;19.98;55.18;98747.09;2093674;28;19908;-39
2021/12/26 01:10:50;;;;;;;;;;;;;;;19.98;55.29;98740.78;2090006;28;20284;-39
2021/12/26 01:11:55;;;;;;;;;;;;;;;19.98;55.33;98747.09;2091146;28;19910;-39
2021/12/26 01:12:55;;;;;;;;;;;;;;;19.97;55.34;98745.44;2093729;28;20000;-39
2021/12/26 01:13:55;;;;;;;;;;;;;;;19.97;55.36;98750.06;2088337;28;19986;-39
2021/12/26 01:15:02;;;;;;;;;;;;;;;19.96;55.26;98740.97;2092879;28;19922;-39
2021/12/26 01:16:05;;;;;;;;;;;;;;;19.96;55.23;98740.97;2074961;28;19972;-39
2021/12/26 01:17:13;;;;;;;;;;;;;;;19.95;55.16;98747.50;2074004;28;20160;-39
2021/12/26 01:18:13;;;;;;;;;;;;;;;19.95;55.25;98747.50;2085123;28;20288;-38
2021/12/26 01:19:17;;;;;;;;;;;;;;;19.95;55.21;98744.75;2070014;28;20315;-39
2021/12/26 01:20:28;;;;;;;;;;;;;;;19.95;55.19;98752.97;2075723;28;20513;-39
2021/12/26 01:21:29;;;;;;;;;;;;;;;19.94;55.20;98744.94;2084508;28;19921;-39
2021/12/26 01:22:29;;;;;;;;;;;;;;;19.94;55.21;98756.72;2083848;28;19974;-39
2021/12/26 01:23:30;;;;;;;;;;;;;;;19.94;55.36;98755.88;2084131;28;19921;-39
2021/12/26 01:24:30;;;;;;;;;;;;;;;19.92;55.18;98748.72;2084878;28;20243;-39
2021/12/26 01:25:31;;;;;;;;;;;;;;;19.92;55.34;98753.34;2089834;28;19916;-39
2021/12/26 01:26:31;;;;;;;;;;;;;;;19.92;55.24;98758.81;2089591;28;19931;-39
2021/12/26 01:27:31;;;;;;;;;;;;;;;19.91;55.15;98757.94;2091004;28;19908;-39
2021/12/26 01:28:32;;;;;;;;;;;;;;;19.91;55.30;98757.09;2083911;28;19916;-39
2021/12/26 01:29:34;;;;;;;;;;;;;;;19.91;55.44;98762.56;2084589;28;20384;-39
2021/12/26 01:30:38;;;;;;;;;;;;;;;19.91;55.21;98759.84;2077744;28;21042;-39
2021/12/26 01:31:38;;;;;;;;;;;;;;;19.90;55.34;98760.88;2084716;28;19917;-39
2021/12/26 01:32:39;;;;;;;;;;;;;;;19.89;55.34;98753.69;2084057;28;19919;-39
2021/12/26 01:33:39;;;;;;;;;;;;;;;19.90;55.30;98760.88;2083371;28;20690;-39
2021/12/26 01:34:39;;;;;;;;;;;;;;;19.88;55.27;98754.75;2082502;28;19916;-39
2021/12/26 01:35:39;;;;;;;;;;;;;;;19.88;55.31;98757.47;2084173;28;19916;-39
2021/12/26 01:36:40;;;;;;;;;;;;;;;19.88;55.27;98760.22;2084483;28;20216;-39
2021/12/26 01:37:40;;;;;;;;;;;;;;;19.88;55.38;98762.94;2082501;28;19921;-39
2021/12/26 01:38:40;;;;;;;;;;;;;;;19.87;55.23;98762.09;2085839;28;20233;-39
2021/12/26 01:39:41;;;;;;;;;;;;;;;19.87;55.19;98758.53;2079862;28;19924;-39
2021/12/26 01:40:48;;;;;;;;;;;;;;;19.87;55.18;98762.09;2077117;28;19917;-39
2021/12/26 01:41:49;;;;;;;;;;;;;;;19.86;55.31;98765.88;2077611;28;19970;-39
2021/12/26 01:42:49;;;;;;;;;;;;;;;19.87;55.25;98761.25;2078857;28;20259;-39
2021/12/26 01:43:56;;;;;;;;;;;;;;;19.87;55.08;98766.75;2079396;28;19916;-38
2021/12/26 01:44:56;;;;;;;;;;;;;;;19.86;55.21;98765.88;2074300;28;19917;-39
2021/12/26 01:45:57;;;;;;;;;;;;;;;19.86;55.19;98765.03;2074647;28;19913;-39
2021/12/26 01:46:58;;;;;;;;;;;;;;;19.87;55.23;98766.75;2076699;28;19943;-39
2021/12/26 01:47:59;;;;;;;;;;;;;;;19.87;54.94;98766.75;2079363;28;19952;-39
2021/12/26 01:49:10;;;;;;;;;;;;;;;19.87;55.16;98774.94;2079014;28;19909;-39
2021/12/26 01:50:10;;;;;;;;;;;;;;;19.86;54.97;98773.22;2078145;28;20019;-39
2021/12/26 01:51:11;;;;;;;;;;;;;;;19.85;55.13;98775.13;2078593;28;20247;-39
2021/12/26 01:52:11;;;;;;;;;;;;;;;19.85;55.12;98780.59;2069042;28;19917;-39
2021/12/26 01:53:11;;;;;;;;;;;;;;;19.84;55.01;98781.63;2072070;28;19955;-39
2021/12/26 01:54:13;;;;;;;;;;;;;;;19.84;55.01;98783.50;2082595;28;19912;-39
2021/12/26 01:55:26;;;;;;;;;;;;;;;19.84;54.95;98778.91;2083352;28;19917;-39
2021/12/26 01:56:26;;;;;;;;;;;;;;;19.83;54.94;98781.81;2084851;28;19909;-39
2021/12/26 01:57:26;;;;;;;;;;;;;;;19.84;54.96;98783.50;2086542;28;19924;-39
2021/12/26 01:58:29;;;;;;;;;;;;;;;19.83;55.07;98781.81;2076993;28;19912;-39
2021/12/26 01:59:29;;;;;;;;;;;;;;;19.83;55.03;98781.81;2075630;28;20294;-39
2021/12/26 02:00:30;;;;;;;;;;;;;;;19.82;55.03;98791.03;2083048;28;19904;-39
2021/12/26 02:01:30;;;;;;;;;;;;;;;19.81;54.84;98781.13;2088808;28;19909;-39
2021/12/26 02:02:31;;;;;;;;;;;;;;;19.81;54.97;98792.91;2083909;28;19915;-39
2021/12/26 02:03:31;;;;;;;;;;;;;;;19.82;54.94;98791.03;2084298;28;19999;-39
2021/12/26 02:04:32;;;;;;;;;;;;;;;19.82;54.91;98793.75;2084917;28;20394;-39
2021/12/26 02:05:33;;;;;;;;;;;;;;;19.81;54.98;98794.81;2089543;28;19908;-39
2021/12/26 02:06:33;;;;;;;;;;;;;;;19.81;55.00;98797.53;2084551;28;19939;-39
2021/12/26 02:07:33;;;;;;;;;;;;;;;19.80;54.83;98799.44;2082669;28;20145;-39
2021/12/26 02:08:34;;;;;;;;;;;;;;;19.79;54.85;98795.00;2094203;28;20320;-39
2021/12/26 02:09:35;;;;;;;;;;;;;;;19.80;54.90;98798.59;2087114;28;20402;-40
2021/12/26 02:10:35;;;;;;;;;;;;;;;19.79;54.97;98802.34;2089268;28;19939;-39
2021/12/26 02:11:36;;;;;;;;;;;;;;;19.80;54.82;98793.13;2077597;28;20657;-39
2021/12/26 02:12:36;;;;;;;;;;;;;;;19.78;54.84;98790.56;2081090;28;20321;-39
2021/12/26 02:13:39;;;;;;;;;;;;;;;19.78;54.87;98795.19;2084096;28;19916;-39
2021/12/26 02:14:39;;;;;;;;;;;;;;;19.78;54.99;98789.72;2085071;28;19912;-39
2021/12/26 02:15:40;;;;;;;;;;;;;;;19.78;54.97;98798.78;2089937;28;19928;-39
2021/12/26 02:16:40;;;;;;;;;;;;;;;19.77;54.93;98794.34;2095058;28;20219;-39
2021/12/26 02:17:41;;;;;;;;;;;;;;;19.77;54.86;98796.22;2091296;28;20008;-39
2021/12/26 02:18:41;;;;;;;;;;;;;;;19.76;54.94;98791.78;2091506;28;20342;-39
2021/12/26 02:19:42;;;;;;;;;;;;;;;19.76;54.86;98792.63;2087117;28;20231;-39
2021/12/26 02:21:14;;;;;;;;;;;;;;;19.75;54.87;98801.03;2085700;28;20266;-40
2021/12/26 02:22:19;;;;;;;;;;;;;;;19.74;54.72;98789.22;2089254;28;19939;-39
2021/12/26 02:23:41;;;;;;;;;;;;;;;19.74;54.98;98791.13;2092327;28;19923;-39
2021/12/26 02:28:18;;;;;;;;;;;;;;;19.71;55.00;98784.13;2089957;28;19916;-39
2021/12/26 02:29:18;;;;;;;;;;;;;;;19.72;54.83;98790.44;2094341;28;19920;-38
2021/12/26 02:30:19;;;;;;;;;;;;;;;19.72;54.86;98794.06;2088198;28;20234;-39
2021/12/26 02:31:20;;;;;;;;;;;;;;;19.72;54.97;98790.44;2090862;28;20239;-39
2021/12/26 02:32:20;;;;;;;;;;;;;;;19.70;54.96;98791.50;2090240;28;20026;-39
2021/12/26 02:33:20;;;;;;;;;;;;;;;19.69;54.89;98792.50;2093128;28;20370;-39
2021/12/26 02:34:21;;;;;;;;;;;;;;;19.70;54.90;98796.13;2090768;28;20464;-39
2021/12/26 02:35:22;;;;;;;;;;;;;;;19.69;54.99;98786.19;2088572;28;20597;-39
2021/12/26 02:36:22;;;;;;;;;;;;;;;19.68;54.92;98793.56;2090328;28;19916;-39
2021/12/26 02:37:22;;;;;;;;;;;;;;;19.68;55.00;98790.84;2093383;28;20003;-39
2021/12/26 02:38:23;;;;;;;;;;;;;;;19.68;54.90;98796.28;2092771;28;20804;-39
2021/12/26 02:39:24;;;;;;;;;;;;;;;19.68;54.96;98795.44;2092208;28;20006;-39
2021/12/26 02:40:24;;;;;;;;;;;;;;;19.68;54.92;98793.56;2090953;28;20134;-39
2021/12/26 02:41:24;;;;;;;;;;;;;;;19.67;55.01;98797.34;2092228;28;19994;-39
2021/12/26 02:42:24;;;;;;;;;;;;;;;19.66;54.87;98792.84;2094512;28;19916;-39
2021/12/26 02:43:26;;;;;;;;;;;;;;;19.66;54.96;98795.59;2090961;28;20010;-39
2021/12/26 02:44:27;;;;;;;;;;;;;;;19.67;54.96;98800.06;2092734;28;19916;-39
2021/12/26 02:45:27;;;;;;;;;;;;;;;19.66;55.18;98798.31;2092893;28;19955;-39
2021/12/26 02:46:27;;;;;;;;;;;;;;;19.65;54.96;98801.28;2092437;28;19916;-39
2021/12/26 02:47:31;;;;;;;;;;;;;;;19.65;54.97;98796.66;2091742;28;19977;-39
2021/12/26 02:48:32;;;;;;;;;;;;;;;19.65;55.05;98802.09;2092008;28;19916;-39
2021/12/26 02:49:32;;;;;;;;;;;;;;;19.65;54.97;98804.84;2091160;28;19916;-39
2021/12/26 02:50:32;;;;;;;;;;;;;;;19.65;54.89;98802.09;2093576;28;19920;-39
2021/12/26 02:51:33;;;;;;;;;;;;;;;19.64;54.93;98800.38;2088723;28;19912;-39
2021/12/26 02:52:33;;;;;;;;;;;;;;;19.63;55.03;98798.69;2094421;28;19974;-39
2021/12/26 02:53:34;;;;;;;;;;;;;;;19.64;54.95;98805.84;2089106;28;20017;-38
2021/12/26 02:54:35;;;;;;;;;;;;;;;19.64;55.02;98805.00;2092137;28;20280;-39
2021/12/26 02:55:35;;;;;;;;;;;;;;;19.63;55.00;98804.16;2093293;28;20271;-39
2021/12/26 02:56:35;;;;;;;;;;;;;;;19.62;54.97;98805.22;2093600;28;20599;-39
2021/12/26 02:57:36;;;;;;;;;;;;;;;19.62;54.96;98804.34;2093142;28;19917;-39
2021/12/26 02:58:36;;;;;;;;;;;;;;;19.63;54.98;98803.31;2094336;28;19930;-39
2021/12/26 02:59:36;;;;;;;;;;;;;;;19.62;54.99;98807.94;2091268;28;20322;-39
2021/12/26 03:00:42;;;;;;;;;;;;;;;19.62;55.03;98807.06;2093750;28;19926;-39
2021/12/26 03:01:43;;;;;;;;;;;;;;;19.61;55.02;98800.78;2094649;28;20026;-39
2021/12/26 03:02:44;;;;;;;;;;;;;;;19.61;55.06;98806.22;2093789;28;19916;-39
2021/12/26 03:03:45;;;;;;;;;;;;;;;19.60;55.07;98804.56;2085525;28;20470;-39
2021/12/26 03:04:45;;;;;;;;;;;;;;;19.59;55.03;98791.91;2086863;28;19916;-39
2021/12/26 03:05:47;;;;;;;;;;;;;;;19.59;54.93;98802.84;2091463;28;20322;-39
2021/12/26 03:07:01;;;;;;;;;;;;;;;19.59;54.96;98802.00;2083635;28;20246;-39
2021/12/26 03:08:02;;;;;;;;;;;;;;;19.59;55.01;98807.47;2088680;28;19916;-39
2021/12/26 03:09:03;;;;;;;;;;;;;;;19.58;54.96;98800.31;2092396;28;19934;-39
2021/12/26 03:10:05;;;;;;;;;;;;;;;19.58;55.03;98797.56;2095773;28;19920;-39
2021/12/26 03:11:05;;;;;;;;;;;;;;;19.58;55.18;98801.16;2093500;28;20094;-39
2021/12/26 03:12:06;;;;;;;;;;;;;;;19.57;55.04;98799.44;2090334;28;20266;-39
2021/12/26 03:13:09;;;;;;;;;;;;;;;19.58;55.00;98806.63;2089093;28;19922;-39
2021/12/26 03:14:09;;;;;;;;;;;;;;;19.57;55.03;98798.59;2090612;28;19977;-39
2021/12/26 03:15:10;;;;;;;;;;;;;;;19.56;54.90;98803.22;2090164;28;19915;-39
2021/12/26 03:16:10;;;;;;;;;;;;;;;19.56;54.90;98814.13;2090894;28;20234;-39
2021/12/26 03:17:10;;;;;;;;;;;;;;;19.56;55.14;98807.84;2088968;28;20444;-39
2021/12/26 03:18:11;;;;;;;;;;;;;;;19.56;55.06;98810.56;2094097;28;19923;-39
2021/12/26 03:19:11;;;;;;;;;;;;;;;19.55;55.13;98808.84;2090639;28;19977;-39
2021/12/26 03:20:12;;;;;;;;;;;;;;;19.55;54.99;98812.47;2090349;28;20302;-38
2021/12/26 03:21:13;;;;;;;;;;;;;;;19.54;54.99;98810.75;2093022;28;19916;-39
2021/12/26 03:22:15;;;;;;;;;;;;;;;19.54;55.04;98810.75;2094957;28;19923;-39
2021/12/26 03:23:17;;;;;;;;;;;;;;;19.54;54.99;98812.63;2086128;28;20334;-39
2021/12/26 03:24:17;;;;;;;;;;;;;;;19.53;54.99;98819.97;2086787;28;19977;-38
2021/12/26 03:25:19;;;;;;;;;;;;;;;19.53;54.99;98822.72;2095411;28;19973;-39
2021/12/26 03:26:19;;;;;;;;;;;;;;;19.53;55.06;98822.72;2084189;28;19908;-39
2021/12/26 03:27:19;;;;;;;;;;;;;;;19.53;55.12;98830.91;2092697;28;19916;-39
2021/12/26 03:28:21;;;;;;;;;;;;;;;19.52;55.06;98826.47;2087501;28;19917;-39
2021/12/26 03:29:21;;;;;;;;;;;;;;;19.53;55.01;98828.19;2090494;28;20498;-38
2021/12/26 03:30:23;;;;;;;;;;;;;;;19.52;55.09;98818.25;2092856;28;20138;-39
2021/12/26 03:31:24;;;;;;;;;;;;;;;19.52;54.98;98818.25;2093711;28;20607;-38
2021/12/26 03:32:24;;;;;;;;;;;;;;;19.51;55.00;98824.78;2094488;28;19916;-39
2021/12/26 03:33:25;;;;;;;;;;;;;;;19.51;55.07;98827.50;2094132;28;19908;-39
2021/12/26 03:34:25;;;;;;;;;;;;;;;19.51;54.98;98822.03;2095238;28;19916;-39
2021/12/26 03:35:26;;;;;;;;;;;;;;;19.50;55.04;98820.34;2098599;28;20728;-39
2021/12/26 03:36:27;;;;;;;;;;;;;;;19.50;55.11;98820.34;2093707;28;19908;-39
2021/12/26 03:37:28;;;;;;;;;;;;;;;19.49;55.04;98821.38;2094796;28;19916;-39
2021/12/26 03:38:29;;;;;;;;;;;;;;;19.51;55.08;98826.66;2098868;28;20002;-39
2021/12/26 03:39:29;;;;;;;;;;;;;;;19.49;55.09;98824.94;2102767;28;19942;-39
2021/12/26 03:40:29;;;;;;;;;;;;;;;19.48;55.11;98825.16;2094539;28;19915;-39
2021/12/26 03:41:30;;;;;;;;;;;;;;;19.47;55.17;98821.53;2094294;28;20149;-38
2021/12/26 03:42:31;;;;;;;;;;;;;;;19.48;55.12;98827.88;2094949;28;19923;-39
2021/12/26 03:43:32;;;;;;;;;;;;;;;19.46;55.05;98825.31;2085471;28;20038;-40
2021/12/26 03:44:32;;;;;;;;;;;;;;;19.47;55.09;98821.53;2085032;28;19908;-39
2021/12/26 03:45:33;;;;;;;;;;;;;;;19.47;55.12;98816.06;2094671;28;19994;-39
2021/12/26 03:46:33;;;;;;;;;;;;;;;19.46;55.15;98819.00;2089020;28;19912;-39
2021/12/26 03:47:34;;;;;;;;;;;;;;;19.46;55.10;98814.38;2092515;28;20078;-39
2021/12/26 03:48:36;;;;;;;;;;;;;;;19.46;55.11;98821.75;2094839;28;19912;-39
2021/12/26 03:49:36;;;;;;;;;;;;;;;19.46;55.08;98816.28;2092532;28;20518;-39
2021/12/26 03:50:40;;;;;;;;;;;;;;;19.46;55.08;98819.00;2094417;28;19980;-39
2021/12/26 03:51:40;;;;;;;;;;;;;;;19.46;55.12;98808.09;2103849;28;19923;-40
2021/12/26 03:52:40;;;;;;;;;;;;;;;19.46;55.11;98819.00;2093441;28;19914;-40
2021/12/26 03:53:41;;;;;;;;;;;;;;;19.44;55.23;98821.06;2092483;28;19955;-39
2021/12/26 03:54:41;;;;;;;;;;;;;;;19.45;55.16;98817.28;2085821;28;19917;-39
2021/12/26 03:55:42;;;;;;;;;;;;;;;19.44;55.06;98816.44;2088297;28;19911;-39
2021/12/26 03:56:43;;;;;;;;;;;;;;;19.44;55.07;98819.19;2095056;28;19958;-39
2021/12/26 03:57:43;;;;;;;;;;;;;;;19.45;55.16;98822.75;2094395;28;19908;-39
2021/12/26 03:58:44;;;;;;;;;;;;;;;19.43;55.02;98822.13;2093190;28;20108;-39
2021/12/26 03:59:44;;;;;;;;;;;;;;;19.42;55.15;98823.13;2104728;28;19919;-39
2021/12/26 04:00:46;;;;;;;;;;;;;;;19.43;55.08;98822.13;2093443;28;19960;-39
2021/12/26 04:01:46;;;;;;;;;;;;;;;19.42;55.23;98823.97;2086134;28;20010;-39
2021/12/26 04:02:47;;;;;;;;;;;;;;;19.42;55.07;98823.13;2088180;28;19931;-39
2021/12/26 04:03:47;;;;;;;;;;;;;;;19.42;55.06;98826.72;2095434;28;19972;-39
2021/12/26 04:04:48;;;;;;;;;;;;;;;19.42;55.10;98823.13;2096936;28;19908;-39
2021/12/26 04:05:48;;;;;;;;;;;;;;;19.41;55.10;98821.44;2094130;28;20229;-39
2021/12/26 04:06:49;;;;;;;;;;;;;;;19.40;55.03;98830.66;2098701;28;19923;-39
2021/12/26 04:07:49;;;;;;;;;;;;;;;19.41;55.00;98826.91;2098189;28;19909;-39
2021/12/26 04:08:49;;;;;;;;;;;;;;;19.41;55.08;98835.13;2095283;28;19963;-39
2021/12/26 04:09:50;;;;;;;;;;;;;;;19.40;55.16;98830.66;2094746;28;19908;-39
2021/12/26 04:10:50;;;;;;;;;;;;;;;19.40;55.02;98828.81;2092160;28;20272;-39
2021/12/26 04:11:51;;;;;;;;;;;;;;;19.40;54.90;98830.66;2094289;28;19916;-39
2021/12/26 04:12:53;;;;;;;;;;;;;;;19.40;54.99;98833.38;2095410;28;20037;-39
2021/12/26 04:13:54;;;;;;;;;;;;;;;19.40;54.96;98833.38;2092801;28;19926;-39
2021/12/26 04:14:54;;;;;;;;;;;;;;;19.40;55.00;98838.84;2103014;28;19916;-39
2021/12/26 04:15:54;;;;;;;;;;;;;;;19.39;54.92;98835.28;2091133;28;20566;-39
2021/12/26 04:16:54;;;;;;;;;;;;;;;19.39;54.93;98839.91;2091895;28;20346;-39
2021/12/26 04:17:56;;;;;;;;;;;;;;;19.39;54.99;98842.63;2094182;28;19920;-39
2021/12/26 04:18:57;;;;;;;;;;;;;;;19.40;54.90;98844.31;2092058;28;20322;-39
2021/12/26 04:19:57;;;;;;;;;;;;;;;19.38;54.90;98832.75;2094936;28;19916;-39
2021/12/26 04:20:57;;;;;;;;;;;;;;;19.38;54.81;98841.78;2092934;28;20260;-39
2021/12/26 04:21:58;;;;;;;;;;;;;;;19.37;54.96;98831.88;2092655;28;19923;-39
2021/12/26 04:22:58;;;;;;;;;;;;;;;19.38;55.02;98832.75;2092368;28;19908;-39
2021/12/26 04:24:00;;;;;;;;;;;;;;;19.37;54.97;98829.16;2093876;28;20034;-39
2021/12/26 04:25:01;;;;;;;;;;;;;;;19.37;54.95;98828.31;2093264;28;20230;-39
2021/12/26 04:26:01;;;;;;;;;;;;;;;19.37;55.02;98836.50;2093593;28;19999;-39
2021/12/26 04:27:02;;;;;;;;;;;;;;;19.37;54.95;98828.31;2083009;28;20686;-39
2021/12/26 04:28:03;;;;;;;;;;;;;;;19.36;54.80;98830.19;2086240;28;20488;-39
2021/12/26 04:29:03;;;;;;;;;;;;;;;19.36;54.91;98827.47;2090107;28;19959;-39
2021/12/26 04:30:05;;;;;;;;;;;;;;;19.37;54.85;98825.56;2080089;28;19945;-39
2021/12/26 04:31:05;;;;;;;;;;;;;;;19.37;54.94;98831.03;2094885;28;19916;-39
2021/12/26 04:32:06;;;;;;;;;;;;;;;19.36;54.86;98821.16;2088874;28;20539;-39
2021/12/26 04:33:06;;;;;;;;;;;;;;;19.35;54.89;98816.69;2093517;28;20330;-39
2021/12/26 04:34:07;;;;;;;;;;;;;;;19.36;54.82;98821.16;2083291;28;19928;-39
2021/12/26 04:35:08;;;;;;;;;;;;;;;19.36;54.89;98823.88;2083587;28;19984;-39
2021/12/26 04:36:08;;;;;;;;;;;;;;;19.36;54.82;98826.63;2094164;28;20302;-39
2021/12/26 04:37:08;;;;;;;;;;;;;;;19.34;54.81;98815.84;2093527;28;20357;-40
2021/12/26 04:38:09;;;;;;;;;;;;;;;19.34;54.83;98813.13;2091654;28;19978;-39
2021/12/26 04:39:09;;;;;;;;;;;;;;;19.33;54.90;98816.91;2091754;28;19967;-39
2021/12/26 04:40:10;;;;;;;;;;;;;;;19.34;54.80;98815.00;2091755;28;19916;-39
2021/12/26 04:41:12;;;;;;;;;;;;;;;19.35;54.70;98816.69;2093127;28;19923;-39
2021/12/26 04:42:12;;;;;;;;;;;;;;;19.34;54.79;98821.31;2091849;28;20363;-40
2021/12/26 04:43:13;;;;;;;;;;;;;;;19.35;54.80;98819.44;2091990;28;19916;-39
2021/12/26 04:44:13;;;;;;;;;;;;;;;19.35;54.83;98825.75;2093411;28;19982;-40
2021/12/26 04:45:14;;;;;;;;;;;;;;;19.36;54.76;98823.88;2092650;28;19970;-39
2021/12/26 04:46:15;;;;;;;;;;;;;;;19.35;54.71;98822.16;2092338;28;20031;-38
2021/12/26 04:47:15;;;;;;;;;;;;;;;19.36;54.72;98832.06;2093902;28;19923;-39
2021/12/26 04:48:16;;;;;;;;;;;;;;;19.36;54.76;98829.34;2093773;28;19920;-39
2021/12/26 04:49:16;;;;;;;;;;;;;;;19.35;54.67;98833.09;2095327;28;19923;-38
2021/12/26 04:50:18;;;;;;;;;;;;;;;19.35;54.80;98827.63;2093035;28;20393;-38
2021/12/26 04:51:19;;;;;;;;;;;;;;;19.34;54.85;98828.69;2092017;28;19908;-38
2021/12/26 04:52:19;;;;;;;;;;;;;;;19.34;54.91;98834.13;2093769;28;20537;-38
2021/12/26 04:53:19;;;;;;;;;;;;;;;19.34;54.87;98834.13;2093278;28;20137;-39
2021/12/26 04:54:19;;;;;;;;;;;;;;;19.34;54.88;98831.41;2092552;28;20151;-39
2021/12/26 04:55:21;;;;;;;;;;;;;;;19.33;54.86;98827.84;2094508;28;20386;-42
2021/12/26 04:56:22;;;;;;;;;;;;;;;19.35;55.04;98833.09;2092510;28;20285;-39
2021/12/26 04:57:22;;;;;;;;;;;;;;;19.35;55.09;98835.81;2089111;28;19930;-40
2021/12/26 04:58:22;;;;;;;;;;;;;;;19.35;55.11;98831.19;2088198;28;19963;-39
2021/12/26 04:59:23;;;;;;;;;;;;;;;19.35;55.08;98824.91;2091685;28;19982;-39
2021/12/26 05:00:26;;;;;;;;;;;;;;;19.34;55.07;98826.78;2086457;28;20322;-41
2021/12/26 05:01:26;;;;;;;;;;;;;;;19.34;55.09;98834.13;2092535;28;19915;-40
2021/12/26 05:02:28;;;;;;;;;;;;;;;19.34;55.06;98831.41;2092759;28;19921;-39
2021/12/26 05:03:29;;;;;;;;;;;;;;;19.35;55.12;98838.56;2085651;28;19992;-39
2021/12/26 05:04:29;;;;;;;;;;;;;;;19.34;55.14;98834.13;2091350;28;19953;-38
2021/12/26 05:05:29;;;;;;;;;;;;;;;19.34;55.15;98831.41;2093716;28;19910;-38
2021/12/26 05:06:30;;;;;;;;;;;;;;;19.33;55.15;98829.69;2086897;28;19912;-38
2021/12/26 05:07:30;;;;;;;;;;;;;;;19.33;55.34;98832.41;2087018;28;19908;-39
2021/12/26 05:08:31;;;;;;;;;;;;;;;19.32;55.26;98833.47;2094685;28;20677;-39
2021/12/26 05:09:31;;;;;;;;;;;;;;;19.31;55.33;98838.09;2091767;28;20226;-40
2021/12/26 05:10:32;;;;;;;;;;;;;;;19.31;55.34;98832.63;2093290;28;20008;-39
2021/12/26 05:11:33;;;;;;;;;;;;;;;19.32;55.34;98836.19;2086154;28;19916;-39
2021/12/26 05:12:34;;;;;;;;;;;;;;;19.31;55.38;98835.34;2089512;28;20538;-39
2021/12/26 05:13:34;;;;;;;;;;;;;;;19.31;55.46;98839.97;2084915;28;19924;-38
2021/12/26 05:14:34;;;;;;;;;;;;;;;19.31;55.37;98837.25;2084333;28;20849;-38
2021/12/26 05:15:35;;;;;;;;;;;;;;;19.30;55.45;98841.00;2090861;28;20454;-39
2021/12/26 05:16:35;;;;;;;;;;;;;;;19.29;55.49;98840.16;2087245;28;19916;-39
2021/12/26 05:17:37;;;;;;;;;;;;;;;19.30;55.63;98846.44;2092523;28;20306;-39
2021/12/26 05:18:37;;;;;;;;;;;;;;;19.31;55.76;98842.72;2093655;28;20730;-38
2021/12/26 05:19:38;;;;;;;;;;;;;;;19.32;55.67;98847.13;2088009;28;20109;-39
2021/12/26 05:20:38;;;;;;;;;;;;;;;19.32;55.71;98845.25;2092961;28;19950;-39
2021/12/26 05:21:38;;;;;;;;;;;;;;;19.32;55.73;98842.50;2093681;28;19966;-38
2021/12/26 05:22:39;;;;;;;;;;;;;;;19.32;55.72;98849.84;2089803;28;20429;-38